Terminal Aerodrome Forecast
Issued by NWS

Current Version | Previous Version | Graphics & Text | Print | Product List | Glossary On
Versions: 1 2 3 4 5 6 7 8 9 10 11 12 13 14 15 16 17 18 19 20 21 22 23 24 25
863
FTUS41 KRLX 272333
TAFCKB
TAF
KCKB 272333Z 2800/2824 14005KT P6SM BKN120
     FM281000 00000KT 5SM BR SCT250
     FM281300 VRB02KT P6SM SCT250=

USA.gov is the U.S. government's official web portal to all federal, state and local government web resources and services.